WetterOnline ( https://www.wetteronline.de )

Wetter aktuell Cuxhaven

Aktuelles Wetter: Cuxhaven (12m)

6-stündlich | Neueste Meldungen
Ortszeit Temperatur Wetter
Sa, 02.03. 13:00 11.4° C leicht bewölkt
Sa, 02.03. 7:00 6.6° C bewölkt
Sa, 02.03. 1:00 7.6° C bedeckt
Fr, 01.03. 19:00 9.0° C bedeckt
Fr, 01.03. 13:00 9.6° C bedeckt
Fr, 01.03. 7:00 5.7° C bedeckt
Fr, 01.03. 1:00 8.3° C bewölkt
Do, 29.02. 19:00 10.5° C bedeckt
Ortszeit Temperatur Wetter
Sa, 02.03. 18:30 9.8° C wolkig
Sa, 02.03. 18:20 9.8° C wolkig
Sa, 02.03. 18:10 9.7° C bedeckt
Sa, 02.03. 18:00 9.8° C wolkig
Sa, 02.03. 17:50 9.8° C wolkig
Sa, 02.03. 17:40 10.5° C bewölkt
Sa, 02.03. 17:30 11.7° C leicht bewölkt
Sa, 02.03. 17:00 12.0° C leicht bewölkt
Sa, 02.03. 16:30 12.1° C leicht bewölkt
Sa, 02.03. 16:00 11.4° C fast wolkenlos
Sa, 02.03. 15:30 11.4° C fast wolkenlos
Ortszeit Relative Feuchte Sichtweite
Sa, 02.03. 13:00 66% 45 km
Sa, 02.03. 7:00 84% 19 km
Sa, 02.03. 1:00 83% 24 km
Fr, 01.03. 19:00 79% 30 km
Fr, 01.03. 13:00 77% 20 km
Fr, 01.03. 7:00 80% 14 km
Fr, 01.03. 1:00 67% 29 km
Do, 29.02. 19:00 61% 30 km
Ortszeit Relative Feuchte Sichtweite
Sa, 02.03. 18:30 80% 30 km
Sa, 02.03. 18:20 80% -
Sa, 02.03. 18:10 80% -
Sa, 02.03. 18:00 78% 27 km
Sa, 02.03. 17:50 78% -
Sa, 02.03. 17:40 73% -
Sa, 02.03. 17:30 67% 35 km
Sa, 02.03. 17:00 65% 35 km
Sa, 02.03. 16:30 64% 30 km
Sa, 02.03. 16:00 67% 35 km
Sa, 02.03. 15:30 67% 35 km
Ortszeit Niederschlagsmenge Niederschlagsart
Sa, 02.03. 13:00 0.0 l/m2 in 6 Std. -
Sa, 02.03. 7:00 0.0 l/m2 in 12 Std. -
Sa, 02.03. 1:00 0.0 l/m2 in 6 Std. -
Fr, 01.03. 19:00 0.0 l/m2 in 12 Std. -
Fr, 01.03. 13:00 0.0 l/m2 in 6 Std. -
Fr, 01.03. 7:00 0.0 l/m2 in 12 Std. -
Fr, 01.03. 1:00 0.0 l/m2 in 6 Std. -
Do, 29.02. 19:00 0.6 l/m2 in 12 Std. Regen
Ortszeit Niederschlagsmenge Niederschlagsart
Sa, 02.03. 18:30 0.0 l/m2 in 30 Min -
Sa, 02.03. 18:20 keine Meldung -
Sa, 02.03. 18:10 keine Meldung -
Sa, 02.03. 18:00 0.0 l/m2 in 1 Std. -
Sa, 02.03. 17:50 keine Meldung -
Sa, 02.03. 17:40 keine Meldung -
Sa, 02.03. 17:30 0.0 l/m2 in 30 Min -
Sa, 02.03. 17:00 0.0 l/m2 in 1 Std. -
Sa, 02.03. 16:30 0.0 l/m2 in 30 Min -
Sa, 02.03. 16:00 0.0 l/m2 in 1 Std. -
Sa, 02.03. 15:30 0.0 l/m2 in 30 Min -
Ortszeit Stärke Spitze Richtung
km/h Bft. km/h Grad Sektor
Sa, 02.03. 13:00 11 2 25 150° SO
Sa, 02.03. 7:00 11 2 32 150° SO
Sa, 02.03. 1:00 7 2 25 140° SO
Fr, 01.03. 19:00 11 2 36 150° SO
Fr, 01.03. 13:00 22 4 40 220° SW
Fr, 01.03. 7:00 13 3 28 150° SO
Fr, 01.03. 1:00 14 3 36 150° SO
Do, 29.02. 19:00 15 3 35 160° S
Ortszeit Stärke Spitze Richtung
km/h Bft. km/h Grad Sektor
Sa, 02.03. 18:30 17 3 26 110° O
Sa, 02.03. 18:20 17 3 - 110° O
Sa, 02.03. 18:10 18 3 - 110° O
Sa, 02.03. 18:00 14 3 25 120° SO
Sa, 02.03. 17:50 14 3 - 120° SO
Sa, 02.03. 17:40 18 3 - 120° SO
Sa, 02.03. 17:30 17 3 24 130° SO
Sa, 02.03. 17:00 18 3 32 130° SO
Sa, 02.03. 16:30 19 3 31 130° SO
Sa, 02.03. 16:00 22 4 32 120° SO
Sa, 02.03. 15:30 22 4 32 120° SO
Ortszeit Untergrenze Bedeckung Gattung
total tief tief mittel hoch
Sa, 02.03. 13:00 7500 m 8/8 0/8 - - -
Sa, 02.03. 7:00 1800 m 8/8 7/8 - - -
Sa, 02.03. 1:00 4200 m 8/8 8/8 - - -
Fr, 01.03. 19:00 6000 m 8/8 8/8 - - -
Fr, 01.03. 13:00 510 m 8/8 8/8 - - -
Fr, 01.03. 7:00 720 m 8/8 8/8 - - -
Fr, 01.03. 1:00 1170 m 8/8 6/8 - - -
Do, 29.02. 19:00 810 m 8/8 8/8 - - -
Ortszeit Bedeckungsgrad in Achtel und Wolkenuntergrenze
Sa, 02.03. 18:30 7(7800m) 7(9000m)
Sa, 02.03. 18:20 7(7800m) 7(9000m)
Sa, 02.03. 18:10 8
Sa, 02.03. 18:00 7(7800m) 8(9000m)
Sa, 02.03. 17:50 7(7800m) 8(9000m)
Sa, 02.03. 17:40 7
Sa, 02.03. 17:30 4(9000m)
Sa, 02.03. 17:00 2(7800m) 4(9000m)
Sa, 02.03. 16:30 6(9000m)
Sa, 02.03. 16:00 1(8400m)
Sa, 02.03. 15:30 2(8400m)
Ortszeit Luftdruck NN (hPa) Tendenz (hPa in 3 Std.)
Sa, 02.03. 13:00 1004 + 0,6
Sa, 02.03. 7:00 1003 - 0,1
Sa, 02.03. 1:00 1004 - 0,6
Fr, 01.03. 19:00 1004 + 0,2
Fr, 01.03. 13:00 1004 + 1,1
Fr, 01.03. 7:00 1002 - 0,3
Fr, 01.03. 1:00 1004 - 1,3
Do, 29.02. 19:00 1007 - 1,1
Ortszeit Luftdruck NN (hPa) Tendenz (hPa in 3 Std.)
Sa, 02.03. 18:30 1004 + 0,2
Sa, 02.03. 18:20 1004 keine Meldung
Sa, 02.03. 18:10 1004 keine Meldung
Sa, 02.03. 18:00 1004 - 0,3
Sa, 02.03. 17:50 1004 keine Meldung
Sa, 02.03. 17:40 1004 keine Meldung
Sa, 02.03. 17:30 1003 - 0,6
Sa, 02.03. 17:00 1004 - 0,6
Sa, 02.03. 16:30 1004 - 0,5
Sa, 02.03. 16:00 1004 - 0,6
Sa, 02.03. 15:30 1004 - 0,6
Ortszeit Schneehöhe (cm)
Sa, 02.03. 13:00 0
Sa, 02.03. 7:00 0
Sa, 02.03. 1:00 0
Fr, 01.03. 19:00 0
Fr, 01.03. 13:00 0
Fr, 01.03. 7:00 0
Fr, 01.03. 1:00 0
Do, 29.02. 19:00 0
Ortszeit Schneehöhe (cm)
Sa, 02.03. 18:30 0
Sa, 02.03. 18:20 0
Sa, 02.03. 18:10 -
Sa, 02.03. 18:00 0
Sa, 02.03. 17:50 0
Sa, 02.03. 17:40 -
Sa, 02.03. 17:30 0
Sa, 02.03. 17:00 0
Sa, 02.03. 16:30 0
Sa, 02.03. 16:00 0
Sa, 02.03. 15:30 0
Link zu dieser Seite / Seite empfehlen

Das Wetter in ...